Time;durP1;ratioP1;P1;durP2;ratioP2;P2;SDS_P1;SDS_P2;PMS_P1;PMS_P2;Temp;Humidity;BMP_temperature;BMP_pressure;BME280_temperature;BME280_humidity;BME280_pressure;Samples;Min_cycle;Max_cycle;Signal;HPM_P1;HPM_P2
2021/01/04 00:01:05;;;;;;;3.83;2.58;;;4.80;99.90;;;;;;4958791;28;20958;-72
2021/01/04 00:04:02;;;;;;;4.90;2.42;;;4.80;99.90;;;;;;4960004;28;20463;-72
2021/01/04 00:07:03;;;;;;;4.80;2.80;;;4.80;99.90;;;;;;4962385;28;20460;-73
2021/01/04 00:09:46;;;;;;;4.60;3.00;;;4.50;99.90;;;;;;4937083;28;20597;-71
2021/01/04 00:12:16;;;;;;;6.43;3.95;;;4.50;99.90;;;;;;4960246;28;20475;-72
2021/01/04 00:15:01;;;;;;;6.30;3.55;;;4.40;99.90;;;;;;4959789;28;20447;-73
2021/01/04 00:17:46;;;;;;;5.25;3.85;;;4.40;99.90;;;;;;4962931;28;20481;-72
2021/01/04 00:20:17;;;;;;;3.97;2.90;;;4.30;99.90;;;;;;4955347;28;20488;-72
2021/01/04 00:22:48;;;;;;;4.82;2.90;;;4.60;99.90;;;;;;4964133;28;20454;-72
2021/01/04 00:25:25;;;;;;;3.20;2.80;;;4.90;99.90;;;;;;4961555;28;20538;-72
2021/01/04 00:27:57;;;;;;;6.17;3.57;;;4.90;99.90;;;;;;4977770;28;21044;-72
2021/01/04 00:30:27;;;;;;;5.35;3.83;;;4.90;99.90;;;;;;4971743;28;20504;-71
2021/01/04 00:32:56;;;;;;;3.90;2.88;;;4.80;99.90;;;;;;4972436;28;20430;-72
2021/01/04 00:35:24;;;;;;;4.60;3.03;;;4.70;99.90;;;;;;4961267;28;20483;-72
2021/01/04 00:38:17;;;;;;;6.20;3.58;;;4.60;99.90;;;;;;4972529;28;20442;-71
2021/01/04 00:40:57;;;;;;;4.28;3.38;;;4.60;99.90;;;;;;4971360;28;20957;-72
2021/01/04 00:43:30;;;;;;;4.03;3.22;;;4.60;99.90;;;;;;4972907;28;20920;-71
2021/01/04 00:45:56;;;;;;;4.63;3.20;;;4.70;99.90;;;;;;4971469;28;20426;-72
2021/01/04 00:48:28;;;;;;;5.05;3.17;;;4.70;99.90;;;;;;4973054;28;20388;-72
2021/01/04 00:51:11;;;;;;;3.63;2.60;;;4.60;99.90;;;;;;4969844;28;20506;-72
2021/01/04 00:53:40;;;;;;;2.92;2.60;;;4.60;99.90;;;;;;4970928;28;20972;-72
2021/01/04 00:56:32;;;;;;;4.33;3.40;;;4.50;99.90;;;;;;4973007;28;20399;-72
2021/01/04 00:59:06;;;;;;;4.03;3.17;;;4.40;99.90;;;;;;4973650;28;20403;-72
2021/01/04 01:01:44;;;;;;;3.70;3.03;;;4.40;99.90;;;;;;4972483;28;20445;-72
2021/01/04 01:04:24;;;;;;;3.83;3.10;;;4.40;99.90;;;;;;4970614;28;20458;-72
2021/01/04 01:06:57;;;;;;;3.92;3.17;;;4.60;99.90;;;;;;4974108;28;20513;-72
2021/01/04 01:09:24;;;;;;;4.25;3.00;;;4.60;99.90;;;;;;4973931;28;20411;-72
2021/01/04 01:12:20;;;;;;;3.45;2.65;;;4.40;99.90;;;;;;4972177;28;20420;-72
2021/01/04 01:15:01;;;;;;;3.97;3.00;;;4.40;99.90;;;;;;4962650;28;20407;-72
2021/01/04 01:17:47;;;;;;;4.78;3.78;;;4.30;99.90;;;;;;4973251;28;20850;-72
2021/01/04 01:20:16;;;;;;;4.72;3.63;;;4.20;99.90;;;;;;4972777;28;20479;-72
2021/01/04 01:22:43;;;;;;;5.20;3.92;;;4.10;99.90;;;;;;4973969;28;20543;-72
2021/01/04 01:25:12;;;;;;;5.40;4.88;;;4.00;99.90;;;;;;4973968;28;20432;-72
2021/01/04 01:27:58;;;;;;;8.17;6.00;;;3.90;99.90;;;;;;4972531;28;20906;-73
2021/01/04 01:30:41;;;;;;;16.92;13.32;;;3.90;99.90;;;;;;4972235;28;20956;-72
2021/01/04 01:33:24;;;;;;;17.10;13.80;;;3.90;99.90;;;;;;4971959;28;20431;-72
2021/01/04 01:36:03;;;;;;;16.77;13.07;;;3.80;99.90;;;;;;4972875;28;20912;-71
2021/01/04 01:38:52;;;;;;;18.77;14.10;;;3.90;99.90;;;;;;4972601;28;20487;-73
2021/01/04 01:41:52;;;;;;;18.33;16.00;;;3.90;99.90;;;;;;4969722;28;20474;-74
2021/01/04 01:44:28;;;;;;;18.23;13.82;;;3.80;99.90;;;;;;4971362;28;20439;-74
2021/01/04 01:47:00;;;;;;;19.17;13.77;;;3.80;99.90;;;;;;4972437;28;20487;-72
2021/01/04 01:49:52;;;;;;;15.18;12.63;;;3.90;99.90;;;;;;4972325;28;20994;-74
2021/01/04 01:52:31;;;;;;;20.40;16.20;;;4.00;99.90;;;;;;4970830;28;20925;-74
2021/01/04 01:55:12;;;;;;;20.52;16.55;;;4.00;99.90;;;;;;4972147;28;20466;-74
2021/01/04 01:58:04;;;;;;;21.55;16.90;;;3.90;99.90;;;;;;4971206;28;20478;-73
2021/01/04 02:00:37;;;;;;;21.00;15.98;;;3.90;99.90;;;;;;4972104;28;20487;-73
2021/01/04 02:03:09;;;;;;;24.30;17.50;;;4.00;99.90;;;;;;4982924;23;20815;-72
2021/01/04 02:06:06;;;;;;;19.73;15.85;;;3.80;99.90;;;;;;4982029;28;20905;-72
2021/01/04 02:08:39;;;;;;;18.83;14.05;;;3.70;99.90;;;;;;4982025;28;20414;-72
2021/01/04 02:11:15;;;;;;;20.95;17.25;;;3.90;99.90;;;;;;4982966;28;20417;-72
2021/01/04 02:13:52;;;;;;;17.33;14.73;;;3.80;99.90;;;;;;4983121;28;20426;-72
2021/01/04 02:16:27;;;;;;;17.83;14.68;;;3.70;99.90;;;;;;4982916;28;20398;-72
2021/01/04 02:19:06;;;;;;;19.10;14.93;;;3.80;99.90;;;;;;4983080;28;20910;-72
2021/01/04 02:22:17;;;;;;;20.13;15.85;;;3.70;99.90;;;;;;4984575;28;20754;-72
2021/01/04 02:24:44;;;;;;;18.98;16.33;;;3.60;99.90;;;;;;4981385;28;20413;-72
2021/01/04 02:27:17;;;;;;;20.42;16.63;;;3.50;99.90;;;;;;4980302;28;20425;-72
2021/01/04 02:29:43;;;;;;;17.45;14.38;;;3.50;99.90;;;;;;4983491;28;20471;-72
2021/01/04 02:32:09;;;;;;;17.30;13.43;;;3.40;99.90;;;;;;4981124;28;20414;-72
2021/01/04 02:34:38;;;;;;;17.50;14.52;;;3.50;99.90;;;;;;4983017;28;20403;-72
2021/01/04 02:37:05;;;;;;;16.77;14.25;;;3.60;99.90;;;;;;4982405;28;20410;-72
2021/01/04 02:39:37;;;;;;;15.57;12.63;;;3.60;99.90;;;;;;4982465;28;20409;-71
2021/01/04 02:42:12;;;;;;;13.10;10.85;;;3.70;99.90;;;;;;4980343;28;20414;-71
2021/01/04 02:44:39;;;;;;;10.30;8.80;;;3.80;99.90;;;;;;4982395;28;20415;-71
2021/01/04 02:47:19;;;;;;;6.50;5.75;;;3.80;99.90;;;;;;4983045;28;20404;-71
2021/01/04 02:49:55;;;;;;;5.97;4.53;;;3.80;99.90;;;;;;4981483;28;20410;-72
2021/01/04 02:52:33;;;;;;;4.20;3.30;;;4.00;99.90;;;;;;4980422;28;20404;-72
2021/01/04 02:55:06;;;;;;;3.28;2.80;;;4.20;99.90;;;;;;4979242;28;20439;-72
2021/01/04 02:57:43;;;;;;;2.90;2.60;;;4.30;99.90;;;;;;4981572;28;20492;-72
2021/01/04 03:00:14;;;;;;;2.63;2.15;;;4.20;99.90;;;;;;4982825;28;20446;-71
2021/01/04 03:02:45;;;;;;;2.47;2.05;;;4.10;99.90;;;;;;4981068;28;20430;-72
2021/01/04 03:05:16;;;;;;;1.60;1.40;;;4.10;99.90;;;;;;4982389;28;20450;-72
2021/01/04 03:07:49;;;;;;;1.88;1.20;;;4.20;99.90;;;;;;4982537;28;20414;-72
2021/01/04 03:10:18;;;;;;;1.65;1.30;;;4.40;99.90;;;;;;4982641;28;20416;-71
2021/01/04 03:13:03;;;;;;;2.40;1.80;;;4.30;99.90;;;;;;4982627;28;20437;-72
2021/01/04 03:15:34;;;;;;;3.13;2.50;;;4.30;99.90;;;;;;4981648;28;20495;-72
2021/01/04 03:18:10;;;;;;;3.28;2.55;;;4.30;99.90;;;;;;4983361;28;20476;-72
2021/01/04 03:20:36;;;;;;;3.55;2.88;;;4.30;99.90;;;;;;4982481;28;20400;-72
2021/01/04 03:23:03;;;;;;;4.78;3.45;;;4.40;99.90;;;;;;4982119;28;20428;-72
2021/01/04 03:25:33;;;;;;;4.18;3.30;;;4.40;99.90;;;;;;4980977;28;20938;-72
2021/01/04 03:28:01;;;;;;;4.78;3.67;;;4.30;99.90;;;;;;4981075;28;20447;-72
2021/01/04 03:30:28;;;;;;;4.28;3.40;;;4.30;99.90;;;;;;4982475;28;20420;-72
2021/01/04 03:32:54;;;;;;;4.32;3.72;;;4.20;99.90;;;;;;4981870;28;20422;-72
2021/01/04 03:35:20;;;;;;;5.47;3.65;;;4.10;99.90;;;;;;4979843;28;20487;-72
2021/01/04 03:37:46;;;;;;;4.28;3.80;;;4.00;99.90;;;;;;4980815;28;20408;-72
2021/01/04 03:40:14;;;;;;;3.88;3.50;;;4.00;99.90;;;;;;4981110;28;20402;-72
2021/01/04 03:42:40;;;;;;;5.05;3.70;;;4.00;99.90;;;;;;4983257;28;20888;-72
2021/01/04 03:45:08;;;;;;;4.70;3.28;;;3.80;99.90;;;;;;4980733;28;20410;-72
2021/01/04 03:47:34;;;;;;;4.50;3.22;;;3.80;99.90;;;;;;4981035;28;20908;-72
2021/01/04 03:50:04;;;;;;;4.07;2.88;;;3.80;99.90;;;;;;4982994;28;20470;-72
2021/01/04 03:52:30;;;;;;;3.80;3.03;;;3.70;99.90;;;;;;4985839;28;20924;-72
2021/01/04 03:54:56;;;;;;;4.07;3.20;;;3.70;99.90;;;;;;4981893;28;20406;-73
2021/01/04 03:57:22;;;;;;;3.10;2.80;;;3.70;99.90;;;;;;4983112;28;20421;-72
2021/01/04 03:59:48;;;;;;;3.83;2.88;;;3.70;99.90;;;;;;4982399;28;20403;-72
2021/01/04 04:02:14;;;;;;;2.53;2.20;;;3.70;99.90;;;;;;4982268;28;20477;-72
2021/01/04 04:04:41;;;;;;;3.63;2.40;;;3.60;99.90;;;;;;4982019;28;20428;-72
2021/01/04 04:07:07;;;;;;;2.30;2.03;;;3.70;99.90;;;;;;4980109;28;20405;-72
2021/01/04 04:09:33;;;;;;;3.30;2.30;;;3.80;99.90;;;;;;4979947;28;20440;-72
2021/01/04 04:11:59;;;;;;;1.87;1.57;;;3.70;99.90;;;;;;4981083;28;20451;-72
2021/01/04 04:14:24;;;;;;;2.60;1.95;;;3.70;99.90;;;;;;4983195;28;20541;-72
2021/01/04 04:16:50;;;;;;;2.42;2.08;;;3.70;99.90;;;;;;4982839;28;20404;-72
2021/01/04 04:19:17;;;;;;;3.22;1.90;;;3.80;99.90;;;;;;4980294;28;20446;-72
2021/01/04 04:21:53;;;;;;;2.58;1.73;;;3.80;99.90;;;;;;4982536;28;20887;-72
2021/01/04 04:24:19;;;;;;;3.20;2.05;;;3.80;99.90;;;;;;4980882;28;20503;-72
2021/01/04 04:26:45;;;;;;;2.05;1.77;;;3.80;99.90;;;;;;4982262;28;20394;-72
2021/01/04 04:29:11;;;;;;;2.83;1.90;;;3.70;99.90;;;;;;4981637;28;20591;-71
2021/01/04 04:31:42;;;;;;;3.28;2.50;;;3.60;99.90;;;;;;4979507;28;20448;-72
2021/01/04 04:34:08;;;;;;;2.75;2.22;;;3.40;99.90;;;;;;4981964;28;20399;-72
2021/01/04 04:36:35;;;;;;;2.42;1.90;;;3.50;99.90;;;;;;4982825;28;20401;-72
2021/01/04 04:39:01;;;;;;;2.00;1.40;;;3.50;99.90;;;;;;4980255;28;21670;-72
2021/01/04 04:41:30;;;;;;;2.60;1.77;;;3.60;99.90;;;;;;4980909;28;20404;-72
2021/01/04 04:44:06;;;;;;;2.47;1.88;;;3.50;99.90;;;;;;4981160;28;20406;-72
2021/01/04 04:47:09;;;;;;;2.65;2.30;;;3.60;99.90;;;;;;4979463;28;20398;-72
2021/01/04 04:50:20;;;;;;;2.80;2.30;;;3.40;99.90;;;;;;4980947;28;20918;-72
2021/01/04 04:53:15;;;;;;;2.70;2.05;;;3.40;99.90;;;;;;4905876;29;20436;-72
2021/01/04 04:56:04;;;;;;;2.17;1.85;;;3.20;99.90;;;;;;4904993;29;20441;-72
2021/01/04 04:58:39;;;;;;;2.28;1.95;;;3.30;99.90;;;;;;4959298;28;20749;-72
2021/01/04 05:01:16;;;;;;;2.08;1.70;;;3.20;99.90;;;;;;4981027;28;20911;-72
2021/01/04 05:03:56;;;;;;;2.80;2.28;;;;;;;;;;4980501;28;20428;-72
2021/01/04 05:06:33;;;;;;;2.42;2.15;;;;;;;;;;4981230;28;20409;-72
2021/01/04 05:09:14;;;;;;;2.70;2.50;;;3.20;99.90;;;;;;4981503;28;20394;-72
2021/01/04 05:11:43;;;;;;;2.78;2.50;;;3.00;99.90;;;;;;4981939;28;20418;-72
2021/01/04 05:14:17;;;;;;;2.58;2.38;;;2.90;99.90;;;;;;4980890;28;20463;-72
2021/01/04 05:17:00;;;;;;;2.67;2.13;;;2.90;99.90;;;;;;4980890;28;20884;-72
2021/01/04 05:20:05;;;;;;;2.20;2.00;;;3.00;99.90;;;;;;4979564;28;20402;-72
2021/01/04 05:22:52;;;;;;;2.80;2.10;;;3.10;99.90;;;;;;4978684;28;20483;-72
2021/01/04 05:25:38;;;;;;;2.90;2.60;;;3.20;99.90;;;;;;4979711;28;20414;-72
2021/01/04 05:28:28;;;;;;;2.83;2.53;;;3.20;99.90;;;;;;4979730;28;20967;-72
2021/01/04 05:31:14;;;;;;;3.10;2.42;;;3.10;99.90;;;;;;4986356;28;20569;-72
2021/01/04 05:33:58;;;;;;;3.88;2.50;;;3.30;99.90;;;;;;4964770;28;20481;-72
2021/01/04 05:36:35;;;;;;;3.97;2.97;;;3.30;99.90;;;;;;4985049;28;20795;-72
2021/01/04 05:39:11;;;;;;;2.85;2.55;;;3.30;99.90;;;;;;4981875;28;20733;-72
2021/01/04 05:41:59;;;;;;;3.78;3.13;;;3.10;99.90;;;;;;4984284;28;20396;-72
2021/01/04 05:44:49;;;;;;;3.40;2.53;;;3.10;99.90;;;;;;4985432;28;20761;-72
2021/01/04 05:47:28;;;;;;;3.05;2.50;;;3.10;99.90;;;;;;4973105;28;21385;-72
2021/01/04 05:50:05;;;;;;;4.77;2.80;;;3.10;99.90;;;;;;4984436;28;20939;-72
2021/01/04 05:52:32;;;;;;;3.85;2.92;;;3.20;99.90;;;;;;4985220;28;20888;-72
2021/01/04 05:54:58;;;;;;;3.05;2.42;;;3.10;99.90;;;;;;4985678;28;20497;-72
2021/01/04 05:57:25;;;;;;;3.03;2.60;;;3.30;99.90;;;;;;4983417;28;20438;-72
2021/01/04 05:59:54;;;;;;;3.43;2.60;;;3.30;99.90;;;;;;4988558;28;20822;-72
2021/01/04 06:02:25;;;;;;;3.10;2.70;;;3.40;99.90;;;;;;4983490;28;20886;-72
2021/01/04 06:04:51;;;;;;;3.35;3.05;;;3.40;99.90;;;;;;4983828;28;20410;-72
2021/01/04 06:07:18;;;;;;;3.00;2.70;;;3.50;99.90;;;;;;4982212;28;20410;-72
2021/01/04 06:09:55;;;;;;;2.83;2.50;;;3.40;99.90;;;;;;4982738;28;20415;-72
2021/01/04 06:12:32;;;;;;;2.58;2.38;;;3.40;99.90;;;;;;4983995;28;20416;-72
2021/01/04 06:14:59;;;;;;;3.05;2.70;;;3.20;99.90;;;;;;4984923;28;20918;-72
2021/01/04 06:17:31;;;;;;;2.75;2.55;;;3.30;99.90;;;;;;4984406;28;20412;-70
2021/01/04 06:20:01;;;;;;;3.95;2.90;;;3.20;99.90;;;;;;4984184;28;20421;-72
2021/01/04 06:22:29;;;;;;;2.90;2.30;;;3.10;99.90;;;;;;4986392;28;20403;-72
2021/01/04 06:24:59;;;;;;;3.58;3.00;;;3.10;99.90;;;;;;4984080;28;20410;-72
2021/01/04 06:27:33;;;;;;;2.80;2.60;;;3.10;99.90;;;;;;4984595;28;20467;-72
2021/01/04 06:30:13;;;;;;;2.92;2.60;;;3.20;99.90;;;;;;4982460;28;20842;-70
2021/01/04 06:32:39;;;;;;;2.80;2.40;;;3.30;99.90;;;;;;4984188;28;20416;-71
2021/01/04 06:35:19;;;;;;;2.95;2.50;;;3.40;99.90;;;;;;4983366;28;20445;-72
2021/01/04 06:37:46;;;;;;;3.10;2.70;;;3.40;99.90;;;;;;4982173;28;20410;-72
2021/01/04 06:40:31;;;;;;;3.42;2.80;;;3.30;99.90;;;;;;4984680;28;20392;-72
2021/01/04 06:43:09;;;;;;;2.97;2.67;;;3.20;99.90;;;;;;4983923;28;20412;-72
2021/01/04 06:45:44;;;;;;;4.07;2.40;;;3.20;99.90;;;;;;4983913;28;20395;-72
2021/01/04 06:48:15;;;;;;;2.85;2.28;;;3.10;99.90;;;;;;4984481;28;20431;-72
2021/01/04 06:50:52;;;;;;;2.33;2.10;;;3.10;99.90;;;;;;4983254;28;20446;-72
2021/01/04 06:53:55;;;;;;;2.40;2.00;;;3.20;99.90;;;;;;4984211;28;20407;-72
2021/01/04 06:56:57;;;;;;;1.80;1.65;;;3.30;99.90;;;;;;4957638;28;20910;-72
2021/01/04 06:59:49;;;;;;;2.67;2.03;;;3.40;99.90;;;;;;4979634;28;20393;-72
2021/01/04 07:02:35;;;;;;;5.10;4.25;;;3.30;99.90;;;;;;4980481;28;20532;-72
2021/01/04 07:05:47;;;;;;;3.03;2.58;;;3.20;99.90;;;;;;4980484;28;20415;-72
2021/01/04 07:08:58;;;;;;;2.35;2.15;;;3.10;99.90;;;;;;4984072;28;20406;-72
2021/01/04 07:11:36;;;;;;;2.43;1.97;;;3.20;99.90;;;;;;4981004;28;20414;-71
2021/01/04 07:14:15;;;;;;;2.78;2.20;;;3.30;99.90;;;;;;4981465;28;20402;-72
2021/01/04 07:16:54;;;;;;;2.58;1.90;;;3.30;99.90;;;;;;4978496;28;20428;-72
2021/01/04 07:19:50;;;;;;;2.10;1.90;;;3.40;99.90;;;;;;4980635;28;20989;-72
2021/01/04 07:22:27;;;;;;;3.07;2.27;;;3.30;99.90;;;;;;4973649;28;21303;-72
2021/01/04 07:25:06;;;;;;;1.92;1.70;;;3.30;99.90;;;;;;4980992;28;20394;-72
2021/01/04 07:27:46;;;;;;;2.45;2.25;;;3.30;99.90;;;;;;4980111;28;20418;-72
2021/01/04 07:30:43;;;;;;;2.80;2.20;;;3.30;99.90;;;;;;4981390;28;20490;-72
2021/01/04 07:33:22;;;;;;;2.10;1.90;;;3.30;99.90;;;;;;4929406;28;20459;-72
2021/01/04 07:35:55;;;;;;;2.72;2.20;;;3.20;99.90;;;;;;4980378;28;20896;-72
2021/01/04 07:38:29;;;;;;;2.55;1.85;;;3.10;99.90;;;;;;4980638;28;20477;-72
2021/01/04 07:41:05;;;;;;;2.03;1.83;;;3.20;99.90;;;;;;4980287;28;20398;-72
2021/01/04 07:43:52;;;;;;;2.40;1.90;;;3.30;99.90;;;;;;4981022;28;20406;-72
2021/01/04 07:47:00;;;;;;;2.43;1.87;;;3.50;99.90;;;;;;4981809;28;20402;-72
2021/01/04 07:49:58;;;;;;;3.22;2.13;;;3.60;99.90;;;;;;4977626;28;20438;-70
2021/01/04 07:53:01;;;;;;;2.95;2.00;;;3.50;99.90;;;;;;4975965;28;20497;-70
2021/01/04 07:56:08;;;;;;;2.80;2.33;;;3.40;99.90;;;;;;5000715;28;20414;-70
2021/01/04 07:59:12;;;;;;;3.00;2.40;;;3.30;99.90;;;;;;4934690;28;20408;-70
2021/01/04 08:02:03;;;;;;;3.38;2.72;;;3.40;99.90;;;;;;4982257;28;20426;-70
2021/01/04 08:05:05;;;;;;;3.47;2.30;;;3.30;99.90;;;;;;4984226;28;20413;-70
2021/01/04 08:07:54;;;;;;;4.10;2.38;;;3.20;99.90;;;;;;4982223;28;20408;-73
2021/01/04 08:10:57;;;;;;;2.28;1.90;;;3.30;99.90;;;;;;4984848;28;20488;-71
2021/01/04 08:13:56;;;;;;;2.50;2.13;;;3.20;99.90;;;;;;4973805;28;20434;-71
2021/01/04 08:16:25;;;;;;;2.58;1.83;;;3.30;99.90;;;;;;4983817;28;20860;-71
2021/01/04 08:18:55;;;;;;;2.00;1.80;;;3.30;99.90;;;;;;4984954;28;20398;-71
2021/01/04 08:21:41;;;;;;;2.97;2.28;;;3.30;99.90;;;;;;4983577;28;20518;-71
2021/01/04 08:24:16;;;;;;;3.42;2.50;;;3.20;99.90;;;;;;4979174;28;20415;-71
2021/01/04 08:26:57;;;;;;;3.58;2.60;;;3.10;99.90;;;;;;4982234;28;20400;-71
2021/01/04 08:29:35;;;;;;;4.20;3.10;;;3.20;99.90;;;;;;4977117;28;20401;-73
2021/01/04 08:32:13;;;;;;;2.85;2.38;;;3.20;99.90;;;;;;4980100;28;20414;-73
2021/01/04 08:34:43;;;;;;;2.85;2.55;;;3.10;99.90;;;;;;4993992;28;20497;-72
2021/01/04 08:37:11;;;;;;;2.50;2.30;;;3.00;99.90;;;;;;4979882;28;20903;-72
2021/01/04 08:39:42;;;;;;;2.08;1.88;;;3.10;99.90;;;;;;4982556;28;20406;-72
2021/01/04 08:42:24;;;;;;;4.45;2.42;;;3.20;99.90;;;;;;4980938;28;20468;-72
2021/01/04 08:44:56;;;;;;;2.20;2.00;;;3.20;99.90;;;;;;4986441;28;20410;-71
2021/01/04 08:47:32;;;;;;;3.33;2.30;;;3.20;99.90;;;;;;4981953;28;20662;-71
2021/01/04 08:50:13;;;;;;;2.40;2.17;;;3.20;99.90;;;;;;4980778;28;20509;-73
2021/01/04 08:52:45;;;;;;;2.67;1.95;;;3.30;99.90;;;;;;4981929;28;20399;-73
2021/01/04 08:55:27;;;;;;;2.75;2.03;;;3.40;99.90;;;;;;4982270;28;20925;-73
2021/01/04 08:57:53;;;;;;;2.17;1.90;;;3.30;99.90;;;;;;4978919;28;20402;-73
2021/01/04 09:00:22;;;;;;;2.73;2.50;;;3.30;99.90;;;;;;4979014;28;20419;-72
2021/01/04 09:02:48;;;;;;;3.65;2.90;;;3.20;99.90;;;;;;4979035;28;20407;-72
2021/01/04 09:05:28;;;;;;;3.90;3.00;;;3.10;99.90;;;;;;4978557;28;20423;-72
2021/01/04 09:07:56;;;;;;;3.10;2.70;;;3.00;99.90;;;;;;4980170;28;20418;-71
2021/01/04 09:10:24;;;;;;;5.45;3.30;;;3.00;99.90;;;;;;4981885;28;20531;-72
2021/01/04 09:12:53;;;;;;;3.90;3.13;;;3.00;99.90;;;;;;4982008;28;20406;-72
2021/01/04 09:15:30;;;;;;;3.65;2.60;;;3.10;99.90;;;;;;4986630;28;20420;-72
2021/01/04 09:18:12;;;;;;;6.10;3.90;;;3.20;99.90;;;;;;4985620;28;20408;-72
2021/01/04 09:20:48;;;;;;;3.83;2.80;;;3.20;99.90;;;;;;4987226;28;20404;-72
2021/01/04 09:23:32;;;;;;;2.60;2.22;;;3.20;99.90;;;;;;4984828;28;20402;-71
2021/01/04 09:26:12;;;;;;;2.45;2.20;;;3.30;99.90;;;;;;5000915;28;20423;-71
2021/01/04 09:28:41;;;;;;;3.08;2.03;;;3.20;99.90;;;;;;4985353;28;20551;-71
2021/01/04 09:31:07;;;;;;;3.83;2.78;;;3.40;99.90;;;;;;4982360;28;20423;-71
2021/01/04 09:33:43;;;;;;;3.45;2.90;;;3.50;99.90;;;;;;4983924;28;20909;-71
2021/01/04 09:36:10;;;;;;;2.50;2.30;;;3.50;99.90;;;;;;4984598;28;20400;-71
2021/01/04 09:38:36;;;;;;;2.90;2.50;;;3.60;99.90;;;;;;4982669;28;20764;-71
2021/01/04 09:41:05;;;;;;;3.25;2.33;;;3.50;99.90;;;;;;4981598;28;21811;-71
2021/01/04 09:43:34;;;;;;;2.53;2.33;;;3.40;99.90;;;;;;4982253;28;20440;-72
2021/01/04 09:46:17;;;;;;;3.78;3.08;;;3.50;99.90;;;;;;4983894;28;20860;-72
2021/01/04 09:48:48;;;;;;;2.90;2.30;;;3.60;99.90;;;;;;4986686;28;20395;-73
2021/01/04 09:51:22;;;;;;;2.42;2.15;;;3.70;99.90;;;;;;4982950;28;20822;-73
2021/01/04 09:53:57;;;;;;;3.60;2.85;;;3.70;99.90;;;;;;4982707;28;20388;-72
2021/01/04 09:56:29;;;;;;;3.58;2.40;;;3.60;99.90;;;;;;4981486;28;20457;-72
2021/01/04 09:59:00;;;;;;;2.97;2.67;;;3.80;99.90;;;;;;4985735;28;21373;-71
2021/01/04 10:01:26;;;;;;;3.80;2.50;;;3.80;99.90;;;;;;4985232;28;20457;-71
2021/01/04 10:03:54;;;;;;;2.83;2.58;;;3.90;99.90;;;;;;4984025;28;20851;-72
2021/01/04 10:06:22;;;;;;;3.53;3.00;;;3.80;99.90;;;;;;4983106;28;20473;-72
2021/01/04 10:08:49;;;;;;;2.85;2.63;;;3.70;99.90;;;;;;4983075;28;20410;-73
2021/01/04 10:11:19;;;;;;;3.33;2.75;;;3.60;99.90;;;;;;4985976;28;20437;-73
2021/01/04 10:13:46;;;;;;;3.92;3.53;;;3.70;99.90;;;;;;4983806;28;20536;-73
2021/01/04 10:16:15;;;;;;;3.95;3.38;;;3.60;99.90;;;;;;4984285;28;20407;-73
2021/01/04 10:18:47;;;;;;;3.88;3.47;;;3.70;99.90;;;;;;4982971;28;20438;-73
2021/01/04 10:21:17;;;;;;;3.90;2.97;;;3.80;99.90;;;;;;4981404;28;20453;-72
2021/01/04 10:23:49;;;;;;;3.08;2.78;;;3.80;99.90;;;;;;4981491;28;20410;-72
2021/01/04 10:26:16;;;;;;;4.40;2.93;;;3.70;99.90;;;;;;4982892;28;20605;-72
2021/01/04 10:28:42;;;;;;;3.58;2.85;;;3.70;99.90;;;;;;4983802;28;20492;-72
2021/01/04 10:31:17;;;;;;;3.57;2.90;;;3.80;99.90;;;;;;4982856;28;20442;-72
2021/01/04 10:33:43;;;;;;;4.03;3.42;;;3.70;99.90;;;;;;4983320;28;20392;-72
2021/01/04 10:36:20;;;;;;;3.55;3.25;;;3.70;99.90;;;;;;4983578;28;20399;-72
2021/01/04 10:38:54;;;;;;;2.97;2.70;;;3.70;99.90;;;;;;4983132;28;20962;-72
2021/01/04 10:41:26;;;;;;;3.03;2.70;;;3.70;99.90;;;;;;4982593;28;20434;-71
2021/01/04 10:44:06;;;;;;;3.17;2.50;;;3.80;99.90;;;;;;4983106;28;20438;-71
2021/01/04 10:46:35;;;;;;;3.33;2.78;;;3.80;99.90;;;;;;4981853;28;20410;-71
2021/01/04 10:49:05;;;;;;;3.17;2.72;;;3.70;99.90;;;;;;4983353;28;20894;-72
2021/01/04 10:51:32;;;;;;;4.63;2.92;;;3.80;99.90;;;;;;4983403;28;20483;-72
2021/01/04 10:53:58;;;;;;;4.68;3.80;;;3.80;99.90;;;;;;4983968;28;20882;-72
2021/01/04 10:56:39;;;;;;;5.00;3.50;;;3.80;99.90;;;;;;4983295;28;20496;-71
2021/01/04 10:59:23;;;;;;;4.53;3.35;;;3.80;99.90;;;;;;4983146;28;20841;-72
2021/01/04 11:01:51;;;;;;;3.50;3.20;;;3.80;99.90;;;;;;4983467;28;20392;-72
2021/01/04 11:04:19;;;;;;;4.32;3.30;;;3.70;99.90;;;;;;4985362;28;20816;-72
2021/01/04 11:06:58;;;;;;;4.18;3.47;;;3.80;99.90;;;;;;4982821;28;20510;-73
2021/01/04 11:09:27;;;;;;;3.83;2.95;;;3.70;99.90;;;;;;4983496;28;20462;-73
2021/01/04 11:12:09;;;;;;;4.85;3.90;;;3.70;99.90;;;;;;4985619;28;20985;-73
2021/01/04 11:14:37;;;;;;;5.20;4.68;;;3.60;99.90;;;;;;4985746;28;20473;-73
2021/01/04 11:17:17;;;;;;;4.00;3.60;;;3.70;99.90;;;;;;4982217;28;20412;-72
2021/01/04 11:19:43;;;;;;;4.43;3.03;;;3.70;99.90;;;;;;4980854;28;20461;-72
2021/01/04 11:22:10;;;;;;;3.03;2.73;;;3.70;99.90;;;;;;4983238;28;20414;-72
2021/01/04 11:24:37;;;;;;;5.00;3.78;;;3.90;99.90;;;;;;4983157;28;20412;-72
2021/01/04 11:27:04;;;;;;;4.75;3.50;;;3.90;99.90;;;;;;4981716;28;20398;-72
2021/01/04 11:29:30;;;;;;;6.53;4.47;;;3.90;99.90;;;;;;4980771;28;20433;-72
2021/01/04 11:31:56;;;;;;;7.22;4.45;;;3.90;99.90;;;;;;4982749;28;20423;-72
2021/01/04 11:34:22;;;;;;;7.40;4.72;;;3.90;99.90;;;;;;4985407;28;20471;-72
2021/01/04 11:36:48;;;;;;;5.60;4.53;;;3.70;99.90;;;;;;4982565;28;20837;-72
2021/01/04 11:39:15;;;;;;;5.18;4.03;;;3.80;99.90;;;;;;4983984;28;20430;-72
2021/01/04 11:41:42;;;;;;;4.73;3.73;;;3.70;99.90;;;;;;4984935;28;20410;-72
2021/01/04 11:44:09;;;;;;;4.90;4.22;;;3.80;99.90;;;;;;4981484;28;20790;-72
2021/01/04 11:46:34;;;;;;;4.18;3.70;;;3.70;99.90;;;;;;4982253;28;20414;-72
2021/01/04 11:49:00;;;;;;;5.03;4.10;;;3.80;99.90;;;;;;4981473;28;20413;-73
2021/01/04 11:51:27;;;;;;;5.03;4.20;;;4.00;99.90;;;;;;4982704;28;20416;-72
2021/01/04 11:53:54;;;;;;;5.65;4.70;;;3.90;99.90;;;;;;4981530;28;20416;-72
2021/01/04 11:56:21;;;;;;;5.25;4.65;;;3.90;99.90;;;;;;4983304;28;20735;-72
2021/01/04 11:58:48;;;;;;;5.40;4.73;;;3.80;99.90;;;;;;4984236;28;20434;-72
2021/01/04 12:01:15;;;;;;;5.63;4.68;;;3.80;99.90;;;;;;4984494;28;20441;-72
2021/01/04 12:03:41;;;;;;;5.28;4.30;;;3.80;99.90;;;;;;4982478;28;21005;-72
2021/01/04 12:06:08;;;;;;;7.65;5.65;;;3.80;99.90;;;;;;4984529;28;20393;-72
2021/01/04 12:08:34;;;;;;;7.88;6.22;;;3.60;99.90;;;;;;4983076;28;20411;-72
2021/01/04 12:11:00;;;;;;;7.32;5.95;;;3.50;99.90;;;;;;4979591;28;20415;-74
2021/01/04 12:13:26;;;;;;;7.18;5.63;;;3.50;99.90;;;;;;4982760;28;20473;-73
2021/01/04 12:15:53;;;;;;;6.38;5.40;;;3.50;99.90;;;;;;4982887;28;20423;-72
2021/01/04 12:18:20;;;;;;;6.18;5.53;;;3.60;99.90;;;;;;4985551;28;20401;-72
2021/01/04 12:20:47;;;;;;;6.47;5.60;;;3.70;99.90;;;;;;4985411;28;20493;-72
2021/01/04 12:23:13;;;;;;;6.72;5.90;;;3.80;99.90;;;;;;4983841;28;20795;-73
2021/01/04 12:25:39;;;;;;;7.22;6.47;;;3.70;99.90;;;;;;4980637;28;20402;-73
2021/01/04 12:28:05;;;;;;;7.13;6.10;;;3.50;99.90;;;;;;4984078;28;20809;-73
2021/01/04 12:30:32;;;;;;;7.63;6.70;;;3.40;99.90;;;;;;4982317;28;20413;-73
2021/01/04 12:32:59;;;;;;;8.32;6.53;;;3.20;99.90;;;;;;4979634;28;20478;-72
2021/01/04 12:35:26;;;;;;;6.25;5.65;;;3.30;99.90;;;;;;4982580;28;20457;-72
2021/01/04 12:37:52;;;;;;;5.97;5.10;;;3.40;99.90;;;;;;4980533;28;20414;-72
2021/01/04 12:40:21;;;;;;;5.63;4.72;;;3.60;99.90;;;;;;4983099;28;20506;-73
2021/01/04 12:42:47;;;;;;;5.57;4.90;;;3.60;99.90;;;;;;4983950;28;20445;-71
2021/01/04 12:45:15;;;;;;;5.35;4.47;;;3.40;99.90;;;;;;4984171;28;20409;-72
2021/01/04 12:47:41;;;;;;;5.93;5.28;;;3.50;99.90;;;;;;4986086;28;20390;-71
2021/01/04 12:50:09;;;;;;;15.27;13.57;;;3.20;99.90;;;;;;4989494;28;20747;-71
2021/01/04 12:52:35;;;;;;;12.40;8.98;;;3.00;99.90;;;;;;4991870;28;20972;-71
2021/01/04 12:55:01;;;;;;;7.53;6.50;;;3.00;99.90;;;;;;5006270;28;20465;-72
2021/01/04 12:57:27;;;;;;;6.88;5.82;;;3.00;99.90;;;;;;4991385;28;20396;-72
2021/01/04 12:59:53;;;;;;;8.45;7.40;;;3.10;99.90;;;;;;4988976;28;20390;-72
2021/01/04 13:02:19;;;;;;;9.30;7.05;;;3.10;99.90;;;;;;4986934;28;21417;-72
2021/01/04 13:04:45;;;;;;;11.13;8.60;;;3.10;99.90;;;;;;4988281;28;20414;-72
2021/01/04 13:07:12;;;;;;;9.18;7.78;;;3.30;99.90;;;;;;4990878;28;20987;-72
2021/01/04 13:09:40;;;;;;;9.18;7.68;;;3.60;99.90;;;;;;4986630;28;20880;-71
2021/01/04 13:12:07;;;;;;;9.13;7.10;;;3.50;99.90;;;;;;4987044;28;20453;-73
2021/01/04 13:14:33;;;;;;;7.57;6.77;;;3.50;99.90;;;;;;4985811;28;20402;-73
2021/01/04 13:16:59;;;;;;;10.75;7.47;;;3.50;99.90;;;;;;4987803;28;20454;-73
2021/01/04 13:19:30;;;;;;;9.45;8.18;;;3.60;99.90;;;;;;4987210;28;20407;-73
2021/01/04 13:21:56;;;;;;;10.82;8.07;;;3.50;99.90;;;;;;4988497;28;20402;-73
2021/01/04 13:24:22;;;;;;;9.88;7.88;;;3.50;99.90;;;;;;4987908;28;20400;-72
2021/01/04 13:26:52;;;;;;;10.13;8.70;;;3.60;99.90;;;;;;4986590;28;20404;-73
2021/01/04 13:29:20;;;;;;;9.57;8.02;;;3.60;99.90;;;;;;4987549;28;20406;-73
2021/01/04 13:31:46;;;;;;;9.85;7.82;;;3.70;99.90;;;;;;4987737;28;20505;-73
2021/01/04 13:34:13;;;;;;;10.48;7.50;;;3.70;99.90;;;;;;4988153;28;20514;-72